Time,TemperatureF,DewpointF,PressureIn,WindDirection,WindDirectionDegrees,WindSpeedMPH,WindSpeedGustMPH,Humidity,HourlyPrecipIn,Conditions,Clouds,dailyrainin,SoftwareType,DateUTC
2013-01-08 00:09:00,-999.0,-99.9,30.15,North,-999,-999.0,-999.0,-999,0.00,,,0.00,weatherlink.com 1.10,2013-01-08 08:09:00,
2013-01-08 00:24:00,-999.0,-99.9,30.16,North,-999,-999.0,-999.0,-999,0.00,,,0.00,weatherlink.com 1.10,2013-01-08 08:24:00,
2013-01-08 00:39:00,-999.0,-99.9,30.15,North,-999,-999.0,-999.0,-999,0.00,,,0.00,weatherlink.com 1.10,2013-01-08 08:39:00,
2013-01-08 00:54:00,-999.0,-99.9,30.15,North,-999,-999.0,-999.0,-999,0.00,,,0.00,weatherlink.com 1.10,2013-01-08 08:54:00,
2013-01-08 01:09:00,-999.0,-99.9,30.16,North,-999,-999.0,-999.0,-999,0.00,,,0.00,weatherlink.com 1.10,2013-01-08 09:09:00,
2013-01-08 01:24:00,-999.0,-99.9,30.16,North,-999,-999.0,-999.0,-999,0.00,,,0.00,weatherlink.com 1.10,2013-01-08 09:24:00,
2013-01-08 01:39:00,-999.0,-99.9,30.17,North,-999,-999.0,-999.0,-999,0.00,,,0.00,weatherlink.com 1.10,2013-01-08 09:39:00,
2013-01-08 01:54:00,-999.0,-99.9,30.17,North,-999,-999.0,-999.0,-999,0.00,,,0.00,weatherlink.com 1.10,2013-01-08 09:54:00,
2013-01-08 02:09:00,-999.0,-99.9,30.16,North,-999,-999.0,-999.0,-999,0.00,,,0.00,weatherlink.com 1.10,2013-01-08 10:09:00,
2013-01-08 02:24:00,-999.0,-99.9,30.16,North,-999,-999.0,-999.0,-999,0.00,,,0.00,weatherlink.com 1.10,2013-01-08 10:24:00,
2013-01-08 02:39:00,-999.0,-99.9,30.16,North,-999,-999.0,-999.0,-999,0.00,,,0.00,weatherlink.com 1.10,2013-01-08 10:39:00,
2013-01-08 02:54:00,-999.0,-99.9,30.16,North,-999,-999.0,-999.0,-999,0.00,,,0.00,weatherlink.com 1.10,2013-01-08 10:54:00,
2013-01-08 03:09:00,-999.0,-99.9,30.15,North,-999,-999.0,-999.0,-999,0.00,,,0.00,weatherlink.com 1.10,2013-01-08 11:09:00,
2013-01-08 03:24:00,-999.0,-99.9,30.14,North,-999,-999.0,-999.0,-999,0.00,,,0.00,weatherlink.com 1.10,2013-01-08 11:24:00,
2013-01-08 03:40:00,-999.0,-99.9,30.14,North,-999,-999.0,-999.0,-999,0.00,,,0.00,weatherlink.com 1.10,2013-01-08 11:40:00,
2013-01-08 03:55:00,-999.0,-99.9,30.14,North,-999,-999.0,-999.0,-999,0.00,,,0.00,weatherlink.com 1.10,2013-01-08 11:55:00,
2013-01-08 04:10:00,-999.0,-99.9,30.15,North,-999,-999.0,-999.0,-999,0.00,,,0.00,weatherlink.com 1.10,2013-01-08 12:10:00,
2013-01-08 04:25:00,-999.0,-99.9,30.15,North,-999,-999.0,-999.0,-999,0.00,,,0.00,weatherlink.com 1.10,2013-01-08 12:25:00,
2013-01-08 04:40:00,-999.0,-99.9,30.15,North,-999,-999.0,-999.0,-999,0.00,,,0.00,weatherlink.com 1.10,2013-01-08 12:40:00,
2013-01-08 04:55:00,-999.0,-99.9,30.15,North,-999,-999.0,-999.0,-999,0.00,,,0.00,weatherlink.com 1.10,2013-01-08 12:55:00,
2013-01-08 05:10:00,-999.0,-99.9,30.14,North,-999,-999.0,-999.0,-999,0.00,,,0.00,weatherlink.com 1.10,2013-01-08 13:10:00,
2013-01-08 05:25:00,-999.0,-99.9,30.14,North,-999,-999.0,-999.0,-999,0.00,,,0.00,weatherlink.com 1.10,2013-01-08 13:25:00,
2013-01-08 05:40:00,-999.0,-99.9,30.14,North,-999,-999.0,-999.0,-999,0.00,,,0.00,weatherlink.com 1.10,2013-01-08 13:40:00,
2013-01-08 05:55:00,-999.0,-99.9,30.14,North,-999,-999.0,-999.0,-999,0.00,,,0.00,weatherlink.com 1.10,2013-01-08 13:55:00,
2013-01-08 06:10:00,-999.0,-99.9,30.15,North,-999,-999.0,-999.0,-999,0.00,,,0.00,weatherlink.com 1.10,2013-01-08 14:10:00,
2013-01-08 06:28:00,-999.0,-99.9,30.15,North,-999,-999.0,-999.0,-999,0.00,,,0.00,weatherlink.com 1.10,2013-01-08 14:28:00,
2013-01-08 06:40:00,-999.0,-99.9,30.15,North,-999,-999.0,-999.0,-999,0.00,,,0.00,weatherlink.com 1.10,2013-01-08 14:40:00,
2013-01-08 06:56:00,-999.0,-99.9,30.15,North,-999,-999.0,-999.0,-999,0.00,,,0.00,weatherlink.com 1.10,2013-01-08 14:56:00,
2013-01-08 07:11:00,-999.0,-99.9,30.15,North,-999,-999.0,-999.0,-999,0.00,,,0.00,weatherlink.com 1.10,2013-01-08 15:11:00,
2013-01-08 07:26:00,-999.0,-99.9,30.16,North,-999,-999.0,-999.0,-999,0.00,,,0.00,weatherlink.com 1.10,2013-01-08 15:26:00,
2013-01-08 07:41:00,-999.0,-99.9,30.16,North,-999,-999.0,-999.0,-999,0.00,,,0.00,weatherlink.com 1.10,2013-01-08 15:41:00,
2013-01-08 07:56:00,-999.0,-99.9,30.16,North,-999,-999.0,-999.0,-999,0.00,,,0.00,weatherlink.com 1.10,2013-01-08 15:56:00,
2013-01-08 08:11:00,-999.0,-99.9,30.17,North,-999,-999.0,-999.0,-999,0.00,,,0.00,weatherlink.com 1.10,2013-01-08 16:11:00,
2013-01-08 08:26:00,-999.0,-99.9,30.18,North,-999,-999.0,-999.0,-999,0.00,,,0.00,weatherlink.com 1.10,2013-01-08 16:26:00,
2013-01-08 08:41:00,-999.0,-99.9,30.18,North,-999,-999.0,-999.0,-999,0.00,,,0.00,weatherlink.com 1.10,2013-01-08 16:41:00,
2013-01-08 08:56:00,-999.0,-99.9,30.19,North,-999,-999.0,-999.0,-999,0.00,,,0.00,weatherlink.com 1.10,2013-01-08 16:56:00,
2013-01-08 09:11:00,-999.0,-99.9,30.18,North,-999,-999.0,-999.0,-999,0.00,,,0.00,weatherlink.com 1.10,2013-01-08 17:11:00,
2013-01-08 09:26:00,-999.0,-99.9,30.19,North,-999,-999.0,-999.0,-999,0.00,,,0.00,weatherlink.com 1.10,2013-01-08 17:26:00,
2013-01-08 09:41:00,-999.0,-99.9,30.19,North,-999,-999.0,-999.0,-999,0.00,,,0.00,weatherlink.com 1.10,2013-01-08 17:41:00,
2013-01-08 09:56:00,-999.0,-99.9,30.19,SSW,205,2.0,-999.0,-999,0.00,,,0.00,weatherlink.com 1.10,2013-01-08 17:56:00,
2013-01-08 10:11:00,52.4,47.0,30.19,SE,139,0.0,4.0,82,0.00,,,0.00,weatherlink.com 1.10,2013-01-08 18:11:00,
2013-01-08 10:26:00,52.2,47.0,30.19,SSE,159,0.0,3.0,83,0.00,,,0.00,weatherlink.com 1.10,2013-01-08 18:26:00,
2013-01-08 10:41:00,52.0,47.0,30.18,SSW,198,0.0,3.0,83,0.00,,,0.00,weatherlink.com 1.10,2013-01-08 18:41:00,
2013-01-08 10:56:00,52.5,48.0,30.18,SSE,162,1.0,3.0,83,0.00,,,0.00,weatherlink.com 1.10,2013-01-08 18:56:00,
2013-01-08 11:12:00,53.7,48.0,30.17,SSE,164,1.0,3.0,80,0.00,,,0.00,weatherlink.com 1.10,2013-01-08 19:12:00,
2013-01-08 11:27:00,54.1,47.0,30.16,ESE,121,1.0,2.0,77,0.00,,,0.00,weatherlink.com 1.10,2013-01-08 19:27:00,
2013-01-08 11:42:00,54.4,47.0,30.15,SSW,212,1.0,2.0,77,0.00,,,0.00,weatherlink.com 1.10,2013-01-08 19:42:00,
2013-01-08 11:57:00,54.7,48.0,30.14,SW,233,1.0,3.0,77,0.00,,,0.00,weatherlink.com 1.10,2013-01-08 19:57:00,
2013-01-08 12:12:00,55.0,47.0,30.14,SW,231,1.0,3.0,75,0.00,,,0.00,weatherlink.com 1.10,2013-01-08 20:12:00,
2013-01-08 12:27:00,55.9,47.0,30.13,West,265,1.0,3.0,73,0.00,,,0.00,weatherlink.com 1.10,2013-01-08 20:27:00,
2013-01-08 12:42:00,58.1,46.0,30.12,NW,320,4.0,7.0,65,0.00,,,0.00,weatherlink.com 1.10,2013-01-08 20:42:00,
2013-01-08 12:57:00,57.7,47.0,30.12,SE,145,1.0,5.0,68,0.00,,,0.00,weatherlink.com 1.10,2013-01-08 20:57:00,
2013-01-08 13:12:00,56.8,47.0,30.12,SSW,194,0.0,3.0,69,0.00,,,0.00,weatherlink.com 1.10,2013-01-08 21:12:00,
2013-01-08 13:27:00,57.7,46.0,30.12,NW,320,5.0,5.0,66,0.00,,,0.00,weatherlink.com 1.10,2013-01-08 21:27:00,
2013-01-08 13:42:00,58.6,46.0,30.11,WSW,256,1.0,4.0,63,0.00,,,0.00,weatherlink.com 1.10,2013-01-08 21:42:00,
2013-01-08 13:57:00,58.8,47.0,30.11,SW,221,3.0,3.0,65,0.00,,,0.00,weatherlink.com 1.10,2013-01-08 21:57:00,
2013-01-08 14:12:00,58.6,46.0,30.11,NW,324,4.0,4.0,64,0.00,,,0.00,weatherlink.com 1.10,2013-01-08 22:12:00,
2013-01-08 14:27:00,58.8,45.0,30.11,West,262,2.0,4.0,60,0.00,,,0.00,weatherlink.com 1.10,2013-01-08 22:27:00,
2013-01-08 14:57:00,58.6,45.0,30.11,SSW,205,0.0,5.0,62,0.00,,,0.00,weatherlink.com 1.10,2013-01-08 22:57:00,
2013-01-08 15:12:00,58.0,45.0,30.12,West,267,2.0,3.0,63,0.00,,,0.00,weatherlink.com 1.10,2013-01-08 23:12:00,
2013-01-08 15:27:00,57.4,46.0,30.11,SSE,152,0.0,3.0,66,0.00,,,0.00,weatherlink.com 1.10,2013-01-08 23:27:00,
2013-01-08 15:42:00,56.2,46.0,30.11,SSW,201,1.0,1.0,69,0.00,,,0.00,weatherlink.com 1.10,2013-01-08 23:42:00,
2013-01-08 15:57:00,57.0,46.0,30.10,ESE,115,1.0,6.0,66,0.00,,,0.00,weatherlink.com 1.10,2013-01-08 23:57:00,
2013-01-08 16:12:00,55.3,46.0,30.10,SSE,159,1.0,2.0,71,0.00,,,0.00,weatherlink.com 1.10,2013-01-09 00:12:00,
2013-01-08 16:27:00,54.5,46.0,30.10,SE,141,0.0,1.0,73,0.00,,,0.00,weatherlink.com 1.10,2013-01-09 00:27:00,
2013-01-08 16:42:00,53.6,46.0,30.10,SSE,156,0.0,2.0,76,0.00,,,0.00,weatherlink.com 1.10,2013-01-09 00:42:00,
2013-01-08 16:57:00,53.7,47.0,30.10,SSW,212,0.0,1.0,77,0.00,,,0.00,weatherlink.com 1.10,2013-01-09 00:57:00,
2013-01-08 17:12:00,52.1,47.0,30.10,ESE,107,0.0,1.0,83,0.00,,,0.00,weatherlink.com 1.10,2013-01-09 01:12:00,
2013-01-08 17:27:00,50.8,47.0,30.11,ESE,107,0.0,0.0,87,0.00,,,0.00,weatherlink.com 1.10,2013-01-09 01:27:00,
2013-01-08 17:42:00,49.5,47.0,30.10,ESE,108,0.0,1.0,90,0.00,,,0.00,weatherlink.com 1.10,2013-01-09 01:42:00,
2013-01-08 17:57:00,48.5,46.0,30.11,ESE,107,0.0,0.0,91,0.00,,,0.00,weatherlink.com 1.10,2013-01-09 01:57:00,
2013-01-08 18:12:00,47.5,45.0,30.11,ESE,107,0.0,1.0,92,0.00,,,0.00,weatherlink.com 1.10,2013-01-09 02:12:00,
2013-01-08 18:27:00,46.9,45.0,30.11,ESE,107,0.0,0.0,93,0.00,,,0.00,weatherlink.com 1.10,2013-01-09 02:27:00,
2013-01-08 18:42:00,46.3,45.0,30.11,ESE,107,0.0,0.0,94,0.00,,,0.00,weatherlink.com 1.10,2013-01-09 02:42:00,
2013-01-08 18:57:00,45.8,44.0,30.12,ESE,108,0.0,0.0,94,0.00,,,0.00,weatherlink.com 1.10,2013-01-09 02:57:00,
2013-01-08 19:27:00,44.9,44.0,30.12,ESE,108,0.0,0.0,95,0.00,,,0.00,weatherlink.com 1.10,2013-01-09 03:27:00,
2013-01-08 19:43:00,44.4,43.0,30.12,ESE,108,0.0,0.0,95,0.00,,,0.00,weatherlink.com 1.10,2013-01-09 03:43:00,
2013-01-08 19:58:00,43.8,43.0,30.12,ESE,107,0.0,0.0,95,0.00,,,0.00,weatherlink.com 1.10,2013-01-09 03:58:00,
2013-01-08 20:13:00,43.3,42.0,30.11,ESE,108,0.0,0.0,95,0.00,,,0.00,weatherlink.com 1.10,2013-01-09 04:13:00,
2013-01-08 20:28:00,42.8,42.0,30.12,ESE,108,0.0,0.0,96,0.00,,,0.00,weatherlink.com 1.10,2013-01-09 04:28:00,
2013-01-08 20:43:00,42.5,42.0,30.11,ESE,108,0.0,0.0,96,0.00,,,0.00,weatherlink.com 1.10,2013-01-09 04:43:00,
2013-01-08 20:58:00,42.2,41.0,30.11,ESE,108,0.0,0.0,96,0.00,,,0.00,weatherlink.com 1.10,2013-01-09 04:58:00,
2013-01-08 21:13:00,41.9,41.0,30.12,ESE,108,0.0,0.0,96,0.00,,,0.00,weatherlink.com 1.10,2013-01-09 05:13:00,
2013-01-08 21:28:00,41.5,41.0,30.11,ESE,108,0.0,0.0,96,0.00,,,0.00,weatherlink.com 1.10,2013-01-09 05:28:00,
2013-01-08 21:43:00,41.2,40.0,30.11,ESE,108,0.0,1.0,96,0.00,,,0.00,weatherlink.com 1.10,2013-01-09 05:43:00,
2013-01-08 21:58:00,41.1,40.0,30.11,ESE,108,0.0,0.0,96,0.00,,,0.00,weatherlink.com 1.10,2013-01-09 05:58:00,
2013-01-08 22:28:00,40.4,40.0,30.11,ESE,107,0.0,0.0,97,0.00,,,0.00,weatherlink.com 1.10,2013-01-09 06:28:00,
2013-01-08 22:43:00,40.2,39.0,30.11,ESE,107,0.0,0.0,97,0.00,,,0.00,weatherlink.com 1.10,2013-01-09 06:43:00,
2013-01-08 22:58:00,38.9,38.0,30.12,ESE,107,0.0,1.0,96,0.00,,,0.00,weatherlink.com 1.10,2013-01-09 06:58:00,
2013-01-08 23:13:00,-999.0,-99.9,30.11,North,-999,-999.0,-999.0,-999,0.00,,,0.00,weatherlink.com 1.10,2013-01-09 07:13:00,
2013-01-08 23:28:00,-999.0,-99.9,30.11,North,-999,-999.0,-999.0,-999,0.00,,,0.00,weatherlink.com 1.10,2013-01-09 07:28:00,
2013-01-08 23:43:00,-999.0,-99.9,30.11,North,-999,-999.0,-999.0,-999,0.00,,,0.00,weatherlink.com 1.10,2013-01-09 07:43:00,
2013-01-08 23:58:00,-999.0,-99.9,30.11,North,-999,-999.0,-999.0,-999,0.00,,,0.00,weatherlink.com 1.10,2013-01-09 07:58:00,